sensor_id;sensor_type;location;lat;lon;timestamp;temperature;humidity
9116;DHT22;4593;53.652;10.168;2023-04-19T00:00:33;5.00;89.50
9116;DHT22;4593;53.652;10.168;2023-04-19T00:03:00;5.00;89.80
9116;DHT22;4593;53.652;10.168;2023-04-19T00:05:27;5.00;89.70
9116;DHT22;4593;53.652;10.168;2023-04-19T00:07:53;5.00;89.90
9116;DHT22;4593;53.652;10.168;2023-04-19T00:10:19;4.90;89.80
9116;DHT22;4593;53.652;10.168;2023-04-19T00:12:45;4.90;89.90
9116;DHT22;4593;53.652;10.168;2023-04-19T00:15:10;4.90;89.70
9116;DHT22;4593;53.652;10.168;2023-04-19T00:17:36;4.80;90.00
9116;DHT22;4593;53.652;10.168;2023-04-19T00:20:02;4.90;89.60
9116;DHT22;4593;53.652;10.168;2023-04-19T00:22:28;4.80;89.30
9116;DHT22;4593;53.652;10.168;2023-04-19T00:24:54;4.90;89.10
9116;DHT22;4593;53.652;10.168;2023-04-19T00:27:20;4.80;89.10
9116;DHT22;4593;53.652;10.168;2023-04-19T00:29:45;4.80;88.70
9116;DHT22;4593;53.652;10.168;2023-04-19T00:32:11;4.80;88.20
9116;DHT22;4593;53.652;10.168;2023-04-19T00:34:37;4.80;87.60
9116;DHT22;4593;53.652;10.168;2023-04-19T00:37:02;4.80;87.50
9116;DHT22;4593;53.652;10.168;2023-04-19T00:39:31;4.80;87.00
9116;DHT22;4593;53.652;10.168;2023-04-19T00:41:56;4.80;86.80
9116;DHT22;4593;53.652;10.168;2023-04-19T00:44:23;4.80;86.50
9116;DHT22;4593;53.652;10.168;2023-04-19T00:46:48;4.80;86.60
9116;DHT22;4593;53.652;10.168;2023-04-19T00:49:19;4.90;86.20
9116;DHT22;4593;53.652;10.168;2023-04-19T00:51:45;4.90;86.20
9116;DHT22;4593;53.652;10.168;2023-04-19T00:54:13;4.90;86.00
9116;DHT22;4593;53.652;10.168;2023-04-19T00:56:39;4.90;85.90
9116;DHT22;4593;53.652;10.168;2023-04-19T00:59:05;4.90;85.90
9116;DHT22;4593;53.652;10.168;2023-04-19T01:01:31;4.80;85.90
9116;DHT22;4593;53.652;10.168;2023-04-19T01:03:57;4.80;85.90
9116;DHT22;4593;53.652;10.168;2023-04-19T01:06:23;4.70;86.30
9116;DHT22;4593;53.652;10.168;2023-04-19T01:08:48;4.70;86.40
9116;DHT22;4593;53.652;10.168;2023-04-19T01:11:14;4.70;86.40
9116;DHT22;4593;53.652;10.168;2023-04-19T01:13:40;4.70;86.40
9116;DHT22;4593;53.652;10.168;2023-04-19T01:16:06;4.70;86.70
9116;DHT22;4593;53.652;10.168;2023-04-19T01:18:31;4.70;86.70
9116;DHT22;4593;53.652;10.168;2023-04-19T01:21:02;4.60;87.20
9116;DHT22;4593;53.652;10.168;2023-04-19T01:23:28;4.70;87.20
9116;DHT22;4593;53.652;10.168;2023-04-19T01:25:54;4.70;86.90
9116;DHT22;4593;53.652;10.168;2023-04-19T01:28:20;4.70;86.90
9116;DHT22;4593;53.652;10.168;2023-04-19T01:30:46;4.70;87.10
9116;DHT22;4593;53.652;10.168;2023-04-19T01:33:11;4.70;87.00
9116;DHT22;4593;53.652;10.168;2023-04-19T01:35:37;4.70;87.00
9116;DHT22;4593;53.652;10.168;2023-04-19T01:38:02;4.70;87.50
9116;DHT22;4593;53.652;10.168;2023-04-19T01:40:29;4.60;87.50
9116;DHT22;4593;53.652;10.168;2023-04-19T01:42:55;4.60;88.10
9116;DHT22;4593;53.652;10.168;2023-04-19T01:45:21;4.60;88.20
9116;DHT22;4593;53.652;10.168;2023-04-19T01:47:46;4.60;88.60
9116;DHT22;4593;53.652;10.168;2023-04-19T01:50:12;4.50;89.00
9116;DHT22;4593;53.652;10.168;2023-04-19T01:52:37;4.50;89.30
9116;DHT22;4593;53.652;10.168;2023-04-19T01:55:03;4.50;89.30
9116;DHT22;4593;53.652;10.168;2023-04-19T01:57:29;4.40;89.70
9116;DHT22;4593;53.652;10.168;2023-04-19T01:59:55;4.50;89.70
9116;DHT22;4593;53.652;10.168;2023-04-19T02:02:21;4.50;89.70
9116;DHT22;4593;53.652;10.168;2023-04-19T02:04:47;4.50;90.00
9116;DHT22;4593;53.652;10.168;2023-04-19T02:07:12;4.40;90.40
9116;DHT22;4593;53.652;10.168;2023-04-19T02:09:38;4.40;90.80
9116;DHT22;4593;53.652;10.168;2023-04-19T02:12:04;4.40;91.00
9116;DHT22;4593;53.652;10.168;2023-04-19T02:14:30;4.40;91.00
9116;DHT22;4593;53.652;10.168;2023-04-19T02:16:57;4.40;90.90
9116;DHT22;4593;53.652;10.168;2023-04-19T02:19:22;4.40;90.90
9116;DHT22;4593;53.652;10.168;2023-04-19T02:21:48;4.40;91.00
9116;DHT22;4593;53.652;10.168;2023-04-19T02:24:14;4.30;91.30
9116;DHT22;4593;53.652;10.168;2023-04-19T02:26:39;4.30;91.20
9116;DHT22;4593;53.652;10.168;2023-04-19T02:29:06;4.30;91.20
9116;DHT22;4593;53.652;10.168;2023-04-19T02:31:31;4.30;91.30
9116;DHT22;4593;53.652;10.168;2023-04-19T02:33:57;4.30;91.50
9116;DHT22;4593;53.652;10.168;2023-04-19T02:36:23;4.20;91.20
9116;DHT22;4593;53.652;10.168;2023-04-19T02:38:48;4.20;91.70
9116;DHT22;4593;53.652;10.168;2023-04-19T02:41:14;4.20;91.70
9116;DHT22;4593;53.652;10.168;2023-04-19T02:43:40;4.20;91.70
9116;DHT22;4593;53.652;10.168;2023-04-19T02:46:06;4.20;91.50
9116;DHT22;4593;53.652;10.168;2023-04-19T02:48:32;4.20;91.30
9116;DHT22;4593;53.652;10.168;2023-04-19T02:50:57;4.10;91.10
9116;DHT22;4593;53.652;10.168;2023-04-19T02:53:23;4.20;91.00
9116;DHT22;4593;53.652;10.168;2023-04-19T02:55:49;4.10;90.70
9116;DHT22;4593;53.652;10.168;2023-04-19T02:58:15;4.10;90.70
9116;DHT22;4593;53.652;10.168;2023-04-19T03:00:41;4.10;90.30
9116;DHT22;4593;53.652;10.168;2023-04-19T03:03:07;4.20;89.80
9116;DHT22;4593;53.652;10.168;2023-04-19T03:05:33;4.20;89.70
9116;DHT22;4593;53.652;10.168;2023-04-19T03:07:59;4.10;89.60
9116;DHT22;4593;53.652;10.168;2023-04-19T03:10:25;4.10;89.70
9116;DHT22;4593;53.652;10.168;2023-04-19T03:12:51;4.10;89.50
9116;DHT22;4593;53.652;10.168;2023-04-19T03:15:17;4.20;89.10
9116;DHT22;4593;53.652;10.168;2023-04-19T03:17:43;4.10;88.80
9116;DHT22;4593;53.652;10.168;2023-04-19T03:20:08;4.10;88.80
9116;DHT22;4593;53.652;10.168;2023-04-19T03:22:36;4.10;88.70
9116;DHT22;4593;53.652;10.168;2023-04-19T03:25:03;4.10;88.70
9116;DHT22;4593;53.652;10.168;2023-04-19T03:27:29;4.10;88.50
9116;DHT22;4593;53.652;10.168;2023-04-19T03:29:55;4.00;88.70
9116;DHT22;4593;53.652;10.168;2023-04-19T03:32:21;4.00;88.60
9116;DHT22;4593;53.652;10.168;2023-04-19T03:34:46;4.00;88.70
9116;DHT22;4593;53.652;10.168;2023-04-19T03:37:12;4.00;88.50
9116;DHT22;4593;53.652;10.168;2023-04-19T03:39:38;4.00;88.20
9116;DHT22;4593;53.652;10.168;2023-04-19T03:42:03;4.00;88.30
9116;DHT22;4593;53.652;10.168;2023-04-19T03:44:32;4.00;88.20
9116;DHT22;4593;53.652;10.168;2023-04-19T03:46:58;3.90;88.30
9116;DHT22;4593;53.652;10.168;2023-04-19T03:49:24;3.90;88.60
9116;DHT22;4593;53.652;10.168;2023-04-19T03:51:49;3.80;88.60
9116;DHT22;4593;53.652;10.168;2023-04-19T03:54:15;3.80;88.60
9116;DHT22;4593;53.652;10.168;2023-04-19T03:56:41;3.70;88.80
9116;DHT22;4593;53.652;10.168;2023-04-19T03:59:08;3.70;89.00
9116;DHT22;4593;53.652;10.168;2023-04-19T04:01:33;3.70;89.10
9116;DHT22;4593;53.652;10.168;2023-04-19T04:03:59;3.70;89.20
9116;DHT22;4593;53.652;10.168;2023-04-19T04:06:25;3.60;89.60
9116;DHT22;4593;53.652;10.168;2023-04-19T04:08:51;3.60;89.50
9116;DHT22;4593;53.652;10.168;2023-04-19T04:11:16;3.60;89.80
9116;DHT22;4593;53.652;10.168;2023-04-19T04:13:42;3.50;89.70
9116;DHT22;4593;53.652;10.168;2023-04-19T04:16:10;3.60;89.70
9116;DHT22;4593;53.652;10.168;2023-04-19T04:18:36;3.60;89.70
9116;DHT22;4593;53.652;10.168;2023-04-19T04:21:02;3.60;89.90
9116;DHT22;4593;53.652;10.168;2023-04-19T04:23:27;3.60;90.30
9116;DHT22;4593;53.652;10.168;2023-04-19T04:25:57;3.60;89.90
9116;DHT22;4593;53.652;10.168;2023-04-19T04:28:25;3.70;89.70
9116;DHT22;4593;53.652;10.168;2023-04-19T04:30:51;3.70;89.60
9116;DHT22;4593;53.652;10.168;2023-04-19T04:33:16;3.80;89.10
9116;DHT22;4593;53.652;10.168;2023-04-19T04:35:42;3.80;88.90
9116;DHT22;4593;53.652;10.168;2023-04-19T04:38:08;3.90;88.50
9116;DHT22;4593;53.652;10.168;2023-04-19T04:40:34;3.90;87.90
9116;DHT22;4593;53.652;10.168;2023-04-19T04:42:59;3.90;88.10
9116;DHT22;4593;53.652;10.168;2023-04-19T04:45:29;4.00;87.60
9116;DHT22;4593;53.652;10.168;2023-04-19T04:47:54;4.00;86.70
9116;DHT22;4593;53.652;10.168;2023-04-19T04:50:20;4.10;86.30
9116;DHT22;4593;53.652;10.168;2023-04-19T04:52:46;4.10;85.70
9116;DHT22;4593;53.652;10.168;2023-04-19T04:55:11;4.00;85.40
9116;DHT22;4593;53.652;10.168;2023-04-19T04:57:37;4.10;85.10
9116;DHT22;4593;53.652;10.168;2023-04-19T05:00:04;4.10;84.40
9116;DHT22;4593;53.652;10.168;2023-04-19T05:02:31;4.20;84.20
9116;DHT22;4593;53.652;10.168;2023-04-19T05:04:57;4.20;83.90
9116;DHT22;4593;53.652;10.168;2023-04-19T05:07:22;4.20;83.70
9116;DHT22;4593;53.652;10.168;2023-04-19T05:09:48;4.30;83.10
9116;DHT22;4593;53.652;10.168;2023-04-19T05:12:13;4.20;82.80
9116;DHT22;4593;53.652;10.168;2023-04-19T05:14:39;4.30;82.50
9116;DHT22;4593;53.652;10.168;2023-04-19T05:17:05;4.30;82.00
9116;DHT22;4593;53.652;10.168;2023-04-19T05:19:31;4.30;81.60
9116;DHT22;4593;53.652;10.168;2023-04-19T05:21:56;4.30;81.40
9116;DHT22;4593;53.652;10.168;2023-04-19T05:24:22;4.40;81.40
9116;DHT22;4593;53.652;10.168;2023-04-19T05:26:47;4.40;81.40
9116;DHT22;4593;53.652;10.168;2023-04-19T05:29:13;4.40;80.90
9116;DHT22;4593;53.652;10.168;2023-04-19T05:31:39;4.40;80.40
9116;DHT22;4593;53.652;10.168;2023-04-19T05:34:05;4.50;79.90
9116;DHT22;4593;53.652;10.168;2023-04-19T05:36:30;4.60;79.70
9116;DHT22;4593;53.652;10.168;2023-04-19T05:38:56;4.60;78.80
9116;DHT22;4593;53.652;10.168;2023-04-19T05:41:22;4.70;78.30
9116;DHT22;4593;53.652;10.168;2023-04-19T05:43:48;4.80;77.80
9116;DHT22;4593;53.652;10.168;2023-04-19T05:46:13;4.90;77.20
9116;DHT22;4593;53.652;10.168;2023-04-19T05:48:39;4.90;76.50
9116;DHT22;4593;53.652;10.168;2023-04-19T05:51:05;5.00;76.70
9116;DHT22;4593;53.652;10.168;2023-04-19T05:53:30;5.00;75.90
9116;DHT22;4593;53.652;10.168;2023-04-19T05:55:56;5.10;75.40
9116;DHT22;4593;53.652;10.168;2023-04-19T05:58:22;5.20;75.00
9116;DHT22;4593;53.652;10.168;2023-04-19T06:00:48;5.20;74.90
9116;DHT22;4593;53.652;10.168;2023-04-19T06:03:15;5.30;74.40
9116;DHT22;4593;53.652;10.168;2023-04-19T06:05:41;5.40;74.00
9116;DHT22;4593;53.652;10.168;2023-04-19T06:08:07;5.60;73.80
9116;DHT22;4593;53.652;10.168;2023-04-19T06:10:34;5.60;72.90
9116;DHT22;4593;53.652;10.168;2023-04-19T06:13:00;5.70;72.80
9116;DHT22;4593;53.652;10.168;2023-04-19T06:15:26;5.90;72.30
9116;DHT22;4593;53.652;10.168;2023-04-19T06:17:52;5.90;71.40
9116;DHT22;4593;53.652;10.168;2023-04-19T06:20:17;6.00;71.00
9116;DHT22;4593;53.652;10.168;2023-04-19T06:22:48;6.10;70.60
9116;DHT22;4593;53.652;10.168;2023-04-19T06:25:14;6.30;69.50
9116;DHT22;4593;53.652;10.168;2023-04-19T06:27:39;6.40;68.70
9116;DHT22;4593;53.652;10.168;2023-04-19T06:30:06;6.50;67.80
9116;DHT22;4593;53.652;10.168;2023-04-19T06:32:32;6.60;67.50
9116;DHT22;4593;53.652;10.168;2023-04-19T06:34:58;6.70;67.20
9116;DHT22;4593;53.652;10.168;2023-04-19T06:37:23;6.80;66.70
9116;DHT22;4593;53.652;10.168;2023-04-19T06:39:49;7.00;66.60
9116;DHT22;4593;53.652;10.168;2023-04-19T06:42:15;7.10;65.80
9116;DHT22;4593;53.652;10.168;2023-04-19T06:44:44;7.30;64.20
9116;DHT22;4593;53.652;10.168;2023-04-19T06:47:09;7.40;63.90
9116;DHT22;4593;53.652;10.168;2023-04-19T06:49:35;7.40;63.90
9116;DHT22;4593;53.652;10.168;2023-04-19T06:52:01;7.60;63.20
9116;DHT22;4593;53.652;10.168;2023-04-19T06:54:26;7.70;62.90
9116;DHT22;4593;53.652;10.168;2023-04-19T06:56:52;7.80;61.70
9116;DHT22;4593;53.652;10.168;2023-04-19T06:59:19;7.90;61.20
9116;DHT22;4593;53.652;10.168;2023-04-19T07:01:45;8.00;60.20
9116;DHT22;4593;53.652;10.168;2023-04-19T07:04:12;8.10;59.30
9116;DHT22;4593;53.652;10.168;2023-04-19T07:06:38;8.30;59.30
9116;DHT22;4593;53.652;10.168;2023-04-19T07:09:05;8.40;59.10
9116;DHT22;4593;53.652;10.168;2023-04-19T07:11:31;8.60;58.00
9116;DHT22;4593;53.652;10.168;2023-04-19T07:13:57;8.90;57.40
9116;DHT22;4593;53.652;10.168;2023-04-19T07:16:24;9.00;56.20
9116;DHT22;4593;53.652;10.168;2023-04-19T07:18:49;8.90;55.60
9116;DHT22;4593;53.652;10.168;2023-04-19T07:21:15;8.80;55.70
9116;DHT22;4593;53.652;10.168;2023-04-19T07:23:41;8.90;56.00
9116;DHT22;4593;53.652;10.168;2023-04-19T07:26:07;9.00;56.00
9116;DHT22;4593;53.652;10.168;2023-04-19T07:28:32;9.20;55.50
9116;DHT22;4593;53.652;10.168;2023-04-19T07:30:58;9.30;55.30
9116;DHT22;4593;53.652;10.168;2023-04-19T07:33:26;9.30;54.30
9116;DHT22;4593;53.652;10.168;2023-04-19T07:35:53;9.30;54.60
9116;DHT22;4593;53.652;10.168;2023-04-19T07:38:18;9.30;54.50
9116;DHT22;4593;53.652;10.168;2023-04-19T07:40:44;9.40;53.50
9116;DHT22;4593;53.652;10.168;2023-04-19T07:43:10;9.40;53.80
9116;DHT22;4593;53.652;10.168;2023-04-19T07:45:36;9.50;54.20
9116;DHT22;4593;53.652;10.168;2023-04-19T07:48:01;9.70;53.80
9116;DHT22;4593;53.652;10.168;2023-04-19T07:50:27;9.80;53.40
9116;DHT22;4593;53.652;10.168;2023-04-19T07:52:53;9.90;53.00
9116;DHT22;4593;53.652;10.168;2023-04-19T07:55:19;9.90;53.40
9116;DHT22;4593;53.652;10.168;2023-04-19T07:57:45;10.10;53.10
9116;DHT22;4593;53.652;10.168;2023-04-19T08:00:14;10.20;52.50
9116;DHT22;4593;53.652;10.168;2023-04-19T08:02:42;10.40;52.50
9116;DHT22;4593;53.652;10.168;2023-04-19T08:05:09;10.40;51.40
9116;DHT22;4593;53.652;10.168;2023-04-19T08:07:34;10.50;50.80
9116;DHT22;4593;53.652;10.168;2023-04-19T08:10:00;10.50;50.30
9116;DHT22;4593;53.652;10.168;2023-04-19T08:12:26;10.60;51.40
9116;DHT22;4593;53.652;10.168;2023-04-19T08:14:52;10.60;51.30
9116;DHT22;4593;53.652;10.168;2023-04-19T08:17:18;10.80;51.00
9116;DHT22;4593;53.652;10.168;2023-04-19T08:19:46;11.00;50.10
9116;DHT22;4593;53.652;10.168;2023-04-19T08:22:17;11.10;49.70
9116;DHT22;4593;53.652;10.168;2023-04-19T08:24:43;11.10;48.70
9116;DHT22;4593;53.652;10.168;2023-04-19T08:27:09;11.10;49.00
9116;DHT22;4593;53.652;10.168;2023-04-19T08:29:35;10.90;48.80
9116;DHT22;4593;53.652;10.168;2023-04-19T08:32:01;10.90;48.40
9116;DHT22;4593;53.652;10.168;2023-04-19T08:34:27;11.00;49.00
9116;DHT22;4593;53.652;10.168;2023-04-19T08:36:53;11.10;48.40
9116;DHT22;4593;53.652;10.168;2023-04-19T08:39:18;11.30;47.80
9116;DHT22;4593;53.652;10.168;2023-04-19T08:41:44;11.10;47.40
9116;DHT22;4593;53.652;10.168;2023-04-19T08:44:11;10.80;47.90
9116;DHT22;4593;53.652;10.168;2023-04-19T08:46:37;11.10;48.40
9116;DHT22;4593;53.652;10.168;2023-04-19T08:49:08;11.30;47.60
9116;DHT22;4593;53.652;10.168;2023-04-19T08:51:34;11.50;46.70
9116;DHT22;4593;53.652;10.168;2023-04-19T08:54:00;11.20;46.80
9116;DHT22;4593;53.652;10.168;2023-04-19T08:56:28;11.10;46.40
9116;DHT22;4593;53.652;10.168;2023-04-19T08:58:55;11.10;45.90
9116;DHT22;4593;53.652;10.168;2023-04-19T09:01:20;11.10;46.30
9116;DHT22;4593;53.652;10.168;2023-04-19T09:03:46;11.10;46.90
9116;DHT22;4593;53.652;10.168;2023-04-19T09:06:12;11.10;47.50
9116;DHT22;4593;53.652;10.168;2023-04-19T09:08:39;11.40;47.10
9116;DHT22;4593;53.652;10.168;2023-04-19T09:11:05;11.40;45.00
9116;DHT22;4593;53.652;10.168;2023-04-19T09:13:31;11.50;45.70
9116;DHT22;4593;53.652;10.168;2023-04-19T09:15:57;11.60;45.20
9116;DHT22;4593;53.652;10.168;2023-04-19T09:18:25;11.60;45.50
9116;DHT22;4593;53.652;10.168;2023-04-19T09:20:51;11.60;44.60
9116;DHT22;4593;53.652;10.168;2023-04-19T09:23:22;11.60;44.70
9116;DHT22;4593;53.652;10.168;2023-04-19T09:25:59;11.60;44.20
9116;DHT22;4593;53.652;10.168;2023-04-19T09:28:29;11.70;44.70
9116;DHT22;4593;53.652;10.168;2023-04-19T09:30:55;11.90;45.20
9116;DHT22;4593;53.652;10.168;2023-04-19T09:33:35;12.20;44.40
9116;DHT22;4593;53.652;10.168;2023-04-19T09:36:04;12.20;41.40
9116;DHT22;4593;53.652;10.168;2023-04-19T09:38:42;12.50;42.50
9116;DHT22;4593;53.652;10.168;2023-04-19T09:41:10;12.10;41.40
9116;DHT22;4593;53.652;10.168;2023-04-19T09:43:36;12.00;41.20
9116;DHT22;4593;53.652;10.168;2023-04-19T09:46:02;12.20;40.60
9116;DHT22;4593;53.652;10.168;2023-04-19T09:48:27;12.30;38.70
9116;DHT22;4593;53.652;10.168;2023-04-19T09:50:55;12.40;37.20
9116;DHT22;4593;53.652;10.168;2023-04-19T09:53:22;12.40;36.40
9116;DHT22;4593;53.652;10.168;2023-04-19T09:55:49;12.40;36.60
9116;DHT22;4593;53.652;10.168;2023-04-19T09:58:15;12.60;37.80
9116;DHT22;4593;53.652;10.168;2023-04-19T10:00:43;12.60;38.60
9116;DHT22;4593;53.652;10.168;2023-04-19T10:03:09;12.50;35.30
9116;DHT22;4593;53.652;10.168;2023-04-19T10:05:38;12.30;34.50
9116;DHT22;4593;53.652;10.168;2023-04-19T10:08:06;12.20;34.70
9116;DHT22;4593;53.652;10.168;2023-04-19T10:10:33;12.30;35.60
9116;DHT22;4593;53.652;10.168;2023-04-19T10:13:01;12.70;35.30
9116;DHT22;4593;53.652;10.168;2023-04-19T10:15:29;13.10;35.00
9116;DHT22;4593;53.652;10.168;2023-04-19T10:17:55;12.90;34.50
9116;DHT22;4593;53.652;10.168;2023-04-19T10:20:26;13.00;33.90
9116;DHT22;4593;53.652;10.168;2023-04-19T10:22:55;12.80;33.20
9116;DHT22;4593;53.652;10.168;2023-04-19T10:25:27;12.90;33.30
9116;DHT22;4593;53.652;10.168;2023-04-19T10:27:54;12.70;32.40
9116;DHT22;4593;53.652;10.168;2023-04-19T10:30:21;12.30;32.20
9116;DHT22;4593;53.652;10.168;2023-04-19T10:32:58;12.30;33.10
9116;DHT22;4593;53.652;10.168;2023-04-19T10:35:26;12.20;32.50
9116;DHT22;4593;53.652;10.168;2023-04-19T10:38:04;12.10;32.20
9116;DHT22;4593;53.652;10.168;2023-04-19T10:43:22;12.30;31.50
9116;DHT22;4593;53.652;10.168;2023-04-19T10:45:48;12.10;31.90
9116;DHT22;4593;53.652;10.168;2023-04-19T10:51:11;12.30;31.10
9116;DHT22;4593;53.652;10.168;2023-04-19T10:53:47;12.40;31.00
9116;DHT22;4593;53.652;10.168;2023-04-19T10:56:15;12.10;29.70
9116;DHT22;4593;53.652;10.168;2023-04-19T11:01:54;12.00;31.00
9116;DHT22;4593;53.652;10.168;2023-04-19T11:07:08;12.20;32.20
9116;DHT22;4593;53.652;10.168;2023-04-19T11:09:34;12.40;30.60
9116;DHT22;4593;53.652;10.168;2023-04-19T11:12:04;12.30;30.20
9116;DHT22;4593;53.652;10.168;2023-04-19T11:14:52;12.50;30.10
9116;DHT22;4593;53.652;10.168;2023-04-19T11:17:24;12.40;30.00
9116;DHT22;4593;53.652;10.168;2023-04-19T11:19:58;12.30;30.60
9116;DHT22;4593;53.652;10.168;2023-04-19T11:22:37;12.30;30.30
9116;DHT22;4593;53.652;10.168;2023-04-19T11:27:42;12.10;29.20
9116;DHT22;4593;53.652;10.168;2023-04-19T11:30:11;12.20;29.80
9116;DHT22;4593;53.652;10.168;2023-04-19T11:32:37;12.30;29.10
9116;DHT22;4593;53.652;10.168;2023-04-19T11:35:08;12.10;28.90
9116;DHT22;4593;53.652;10.168;2023-04-19T11:37:36;12.00;28.70
9116;DHT22;4593;53.652;10.168;2023-04-19T11:40:02;12.10;29.10
9116;DHT22;4593;53.652;10.168;2023-04-19T11:42:29;12.00;29.50
9116;DHT22;4593;53.652;10.168;2023-04-19T11:44:55;12.00;29.40
9116;DHT22;4593;53.652;10.168;2023-04-19T11:47:22;12.00;29.90
9116;DHT22;4593;53.652;10.168;2023-04-19T11:49:48;11.90;29.40
9116;DHT22;4593;53.652;10.168;2023-04-19T11:52:25;11.90;30.10
9116;DHT22;4593;53.652;10.168;2023-04-19T11:54:51;11.90;30.20
9116;DHT22;4593;53.652;10.168;2023-04-19T11:57:30;11.90;30.70
9116;DHT22;4593;53.652;10.168;2023-04-19T12:00:07;11.80;30.30
9116;DHT22;4593;53.652;10.168;2023-04-19T12:02:41;11.90;30.90
9116;DHT22;4593;53.652;10.168;2023-04-19T12:05:12;11.80;31.40
9116;DHT22;4593;53.652;10.168;2023-04-19T12:08:17;12.00;32.00
9116;DHT22;4593;53.652;10.168;2023-04-19T12:10:55;11.80;29.40
9116;DHT22;4593;53.652;10.168;2023-04-19T12:13:22;11.70;29.20
9116;DHT22;4593;53.652;10.168;2023-04-19T12:15:49;11.60;28.90
9116;DHT22;4593;53.652;10.168;2023-04-19T12:18:14;11.70;30.20
9116;DHT22;4593;53.652;10.168;2023-04-19T12:20:45;11.80;31.20
9116;DHT22;4593;53.652;10.168;2023-04-19T12:23:12;11.60;31.50
9116;DHT22;4593;53.652;10.168;2023-04-19T12:25:40;11.50;32.20
9116;DHT22;4593;53.652;10.168;2023-04-19T12:28:07;11.60;32.50
9116;DHT22;4593;53.652;10.168;2023-04-19T12:30:36;11.60;32.60
9116;DHT22;4593;53.652;10.168;2023-04-19T12:33:02;11.70;33.30
9116;DHT22;4593;53.652;10.168;2023-04-19T12:35:28;11.70;32.70
9116;DHT22;4593;53.652;10.168;2023-04-19T12:37:55;11.80;32.50
9116;DHT22;4593;53.652;10.168;2023-04-19T12:40:22;11.60;32.50
9116;DHT22;4593;53.652;10.168;2023-04-19T12:42:48;11.70;31.80
9116;DHT22;4593;53.652;10.168;2023-04-19T12:45:13;11.70;31.00
9116;DHT22;4593;53.652;10.168;2023-04-19T12:47:40;11.80;31.70
9116;DHT22;4593;53.652;10.168;2023-04-19T12:50:07;11.90;32.60
9116;DHT22;4593;53.652;10.168;2023-04-19T12:52:33;12.00;32.00
9116;DHT22;4593;53.652;10.168;2023-04-19T12:54:59;11.90;31.40
9116;DHT22;4593;53.652;10.168;2023-04-19T12:57:25;11.70;31.70
9116;DHT22;4593;53.652;10.168;2023-04-19T12:59:50;11.70;31.50
9116;DHT22;4593;53.652;10.168;2023-04-19T13:02:16;11.70;32.00
9116;DHT22;4593;53.652;10.168;2023-04-19T13:04:42;11.80;31.40
9116;DHT22;4593;53.652;10.168;2023-04-19T13:07:07;11.80;31.30
9116;DHT22;4593;53.652;10.168;2023-04-19T13:09:33;11.70;31.20
9116;DHT22;4593;53.652;10.168;2023-04-19T13:11:59;11.70;30.20
9116;DHT22;4593;53.652;10.168;2023-04-19T13:14:25;11.50;31.10
9116;DHT22;4593;53.652;10.168;2023-04-19T13:16:51;11.70;31.70
9116;DHT22;4593;53.652;10.168;2023-04-19T13:19:17;11.60;30.80
9116;DHT22;4593;53.652;10.168;2023-04-19T13:21:42;11.40;31.50
9116;DHT22;4593;53.652;10.168;2023-04-19T13:24:08;11.30;31.70
9116;DHT22;4593;53.652;10.168;2023-04-19T13:26:34;11.30;31.80
9116;DHT22;4593;53.652;10.168;2023-04-19T13:28:59;11.40;32.20
9116;DHT22;4593;53.652;10.168;2023-04-19T13:31:25;11.50;32.30
9116;DHT22;4593;53.652;10.168;2023-04-19T13:33:52;11.60;31.30
9116;DHT22;4593;53.652;10.168;2023-04-19T13:36:18;11.50;31.50
9116;DHT22;4593;53.652;10.168;2023-04-19T13:38:44;11.60;32.00
9116;DHT22;4593;53.652;10.168;2023-04-19T13:41:10;11.50;31.40
9116;DHT22;4593;53.652;10.168;2023-04-19T13:43:36;11.30;31.00
9116;DHT22;4593;53.652;10.168;2023-04-19T13:46:01;11.40;31.60
9116;DHT22;4593;53.652;10.168;2023-04-19T13:48:27;11.50;31.50
9116;DHT22;4593;53.652;10.168;2023-04-19T13:50:57;11.40;31.90
9116;DHT22;4593;53.652;10.168;2023-04-19T13:53:24;11.40;31.80
9116;DHT22;4593;53.652;10.168;2023-04-19T13:55:50;11.40;31.90
9116;DHT22;4593;53.652;10.168;2023-04-19T13:58:16;11.50;32.40
9116;DHT22;4593;53.652;10.168;2023-04-19T14:00:42;11.60;31.20
9116;DHT22;4593;53.652;10.168;2023-04-19T14:03:08;11.60;30.90
9116;DHT22;4593;53.652;10.168;2023-04-19T14:05:34;11.40;30.40
9116;DHT22;4593;53.652;10.168;2023-04-19T14:08:00;11.30;31.10
9116;DHT22;4593;53.652;10.168;2023-04-19T14:10:26;11.30;31.40
9116;DHT22;4593;53.652;10.168;2023-04-19T14:12:51;11.30;31.50
9116;DHT22;4593;53.652;10.168;2023-04-19T14:15:18;11.10;30.90
9116;DHT22;4593;53.652;10.168;2023-04-19T14:17:45;11.10;31.60
9116;DHT22;4593;53.652;10.168;2023-04-19T14:20:11;11.10;31.30
9116;DHT22;4593;53.652;10.168;2023-04-19T14:22:37;11.10;31.20
9116;DHT22;4593;53.652;10.168;2023-04-19T14:25:04;11.20;31.40
9116;DHT22;4593;53.652;10.168;2023-04-19T14:27:30;11.30;31.40
9116;DHT22;4593;53.652;10.168;2023-04-19T14:29:57;11.30;31.50
9116;DHT22;4593;53.652;10.168;2023-04-19T14:32:22;11.40;30.60
9116;DHT22;4593;53.652;10.168;2023-04-19T14:34:48;11.50;31.50
9116;DHT22;4593;53.652;10.168;2023-04-19T14:37:14;11.40;31.00
9116;DHT22;4593;53.652;10.168;2023-04-19T14:39:40;11.40;30.30
9116;DHT22;4593;53.652;10.168;2023-04-19T14:42:05;11.30;30.20
9116;DHT22;4593;53.652;10.168;2023-04-19T14:44:31;11.30;30.30
9116;DHT22;4593;53.652;10.168;2023-04-19T14:46:57;11.30;29.60
9116;DHT22;4593;53.652;10.168;2023-04-19T14:49:22;11.10;30.30
9116;DHT22;4593;53.652;10.168;2023-04-19T14:51:48;11.20;30.70
9116;DHT22;4593;53.652;10.168;2023-04-19T14:54:14;11.10;30.80
9116;DHT22;4593;53.652;10.168;2023-04-19T14:56:39;11.10;31.70
9116;DHT22;4593;53.652;10.168;2023-04-19T14:59:05;11.10;31.20
9116;DHT22;4593;53.652;10.168;2023-04-19T15:01:34;11.10;31.00
9116;DHT22;4593;53.652;10.168;2023-04-19T15:04:00;11.10;30.80
9116;DHT22;4593;53.652;10.168;2023-04-19T15:06:25;11.00;30.10
9116;DHT22;4593;53.652;10.168;2023-04-19T15:08:51;11.00;29.90
9116;DHT22;4593;53.652;10.168;2023-04-19T15:11:17;11.00;30.10
9116;DHT22;4593;53.652;10.168;2023-04-19T15:13:42;11.00;30.70
9116;DHT22;4593;53.652;10.168;2023-04-19T15:16:08;11.20;31.10
9116;DHT22;4593;53.652;10.168;2023-04-19T15:18:34;11.30;29.70
9116;DHT22;4593;53.652;10.168;2023-04-19T15:21:02;11.30;29.30
9116;DHT22;4593;53.652;10.168;2023-04-19T15:23:28;11.20;29.00
9116;DHT22;4593;53.652;10.168;2023-04-19T15:25:54;11.20;29.30
9116;DHT22;4593;53.652;10.168;2023-04-19T15:28:21;11.30;29.20
9116;DHT22;4593;53.652;10.168;2023-04-19T15:30:59;11.30;29.10
9116;DHT22;4593;53.652;10.168;2023-04-19T15:33:26;11.40;28.60
9116;DHT22;4593;53.652;10.168;2023-04-19T15:35:53;11.40;29.20
9116;DHT22;4593;53.652;10.168;2023-04-19T15:38:23;11.50;29.50
9116;DHT22;4593;53.652;10.168;2023-04-19T15:40:50;11.50;29.30
9116;DHT22;4593;53.652;10.168;2023-04-19T15:43:16;11.50;29.80
9116;DHT22;4593;53.652;10.168;2023-04-19T15:45:41;11.60;29.90
9116;DHT22;4593;53.652;10.168;2023-04-19T15:48:07;11.40;29.50
9116;DHT22;4593;53.652;10.168;2023-04-19T15:50:35;11.30;30.30
9116;DHT22;4593;53.652;10.168;2023-04-19T15:53:01;11.30;30.70
9116;DHT22;4593;53.652;10.168;2023-04-19T15:55:26;11.30;31.30
9116;DHT22;4593;53.652;10.168;2023-04-19T15:57:52;11.30;31.30
9116;DHT22;4593;53.652;10.168;2023-04-19T16:00:18;11.40;32.30
9116;DHT22;4593;53.652;10.168;2023-04-19T16:02:44;11.40;32.00
9116;DHT22;4593;53.652;10.168;2023-04-19T16:05:10;11.30;31.80